Idlewild, Michigan
Current Conditions -  °F | °C
As of 5:55 AM on Sunday 23 Nov 2014 (Local Time) from KRQB Reporting Station
Moderate Fog Moderate Fog  
Wind Chill: 42°   Ceiling: 700
Heat Index: 42°   Visibility: 0.25mi
Dew Point: 42°   Wind: 0mph
Humidity: 100%   Direction: NA
Pressure: 29.79"   Gusts: NA
Location:  43.89°N, 85.8°W
Report Text: KRQB 231055Z AUTO 00000KT 1/4SM FG OVC007 06/06 A2979 RMK AO2 T00570057
Loading
Personal Weather Stations






























Interactive Weather Map New forecast layout! Learn more

10-Day Weather Forecast

Advertisements
Track Severe Weather on mobile